Kezdőlap
METAR-TAF:

METAR-TAF

Repülőterek :

Ostrava, Csehország

földrajzi szélesség: 49-41N, földrajzi hosszúság: 018-07E, magasság: 256 m

Jelenlegi meteorológiai megfigyelések

A jelentés 29 perccel ezelõtt készült, 21:00 UTC
Északi szél 3 kt
Hőmérséklet 20°C
Páratartalom 73%
Légköri nyomás 1020 hPa
Látótávolság 10 km, vagy több
felhőtlen 1500 m magasságban, és nincs gomolyfelhõ

METAR: LKMT 272100Z 36003KT CAVOK 20/15 Q1020 NOSIG

Idő: 23:29 (21:29 UTC)

Előrejelzés

A jelentés 4 órával és 29 perccel ezelõtt készült, 17:00 UTC
Az előrejelzés 27-én 18 óra UTC és 29-én 00 óra UTC között érvényes
Észak-északkeleti szél 6 kt
Látótávolság 10 km, vagy több
felhőtlen 1500 m magasságban, és nincs gomolyfelhõ
28-én 10 óra UTC és 28-én 18 óra UTC között ideiglenes
Északkeleti szél 14 kt
Látótávolság 10 km, vagy több
Szórványos felhőzet 4500 lábon, Cumulonimbus.

TAF: LKMT 271700Z 2718/2900 02006KT CAVOK TEMPO 2810/2818 05014KT 9999 SCT045CB

Meteorológiai megfigyelések és előrejelzések több, mint 4000 repülőtéren (METAR és TAF jelentéseket).

A térképen piros és sárga pontok jelzik az elérhető meteorológiai állomásokat.

Mozgassa az egeret a pont fölött, hogy megjelenjen az állomás neve.

Azután kattintson az időjárási megfigyelések és előrejelzések megtekintéséhez.

A térkép megváltoztatása: kattintson a fekete keresztel jelölt zöld gombra ráközelítéshez, a vonallal jelölt zöld gombra távolításhoz, vagy a zöld nyilakra a szomszédos térképek eléréséhez.


METAR-TAF: